Time;durP1;ratioP1;P1;durP2;ratioP2;P2;SDS_P1;SDS_P2;PMS_P1;PMS_P2;Temp;Humidity;BMP_temperature;BMP_pressure;BME280_temperature;BME280_humidity;BME280_pressure;Samples;Min_cycle;Max_cycle;Signal;HPM_P1;HPM_P2
2020/12/16 00:01:05;;;;;;;23.33;19.70;;;;;;;10.07;77.52;101252.31;5034985;28;20182;-78
2020/12/16 00:03:31;;;;;;;23.40;19.93;;;;;;;9.93;77.71;101248.53;5035233;28;20213;-74
2020/12/16 00:05:56;;;;;;;24.30;18.87;;;;;;;9.99;77.73;101247.81;5035406;28;20416;-76
2020/12/16 00:08:21;;;;;;;22.03;19.60;;;;;;;9.92;77.59;101241.59;5035718;28;20219;-75
2020/12/16 00:10:47;;;;;;;25.37;19.50;;;;;;;9.98;77.40;101246.06;5035482;28;20252;-75
2020/12/16 00:13:12;;;;;;;24.67;20.23;;;;;;;10.04;77.34;101247.06;5035728;28;20305;-73
2020/12/16 00:15:38;;;;;;;25.17;20.47;;;;;;;10.15;77.34;101255.09;5039416;28;20178;-74
2020/12/16 00:18:03;;;;;;;23.80;19.87;;;;;;;10.13;77.34;101264.56;5039631;28;20193;-74
2020/12/16 00:20:29;;;;;;;25.90;19.60;;;;;;;10.38;76.29;101260.75;5039000;28;20185;-75
2020/12/16 00:22:54;;;;;;;27.03;20.20;;;;;;;10.26;76.03;101273.53;5039498;28;20217;-77
2020/12/16 00:25:19;;;;;;;24.83;19.60;;;;;;;10.18;76.60;101275.97;5039092;28;20300;-77
2020/12/16 00:27:45;;;;;;;24.37;20.17;;;;;;;9.87;77.69;101277.09;5039127;28;20176;-77
2020/12/16 00:30:10;;;;;;;26.90;21.60;;;;;;;10.14;77.64;101286.31;5038108;28;20421;-75
2020/12/16 00:32:36;;;;;;;32.20;22.13;;;;;;;10.00;77.30;101283.41;5035095;28;20205;-76
2020/12/16 00:35:03;;;;;;;26.70;20.77;;;;;;;9.95;77.30;101289.41;5029854;28;20213;-77
2020/12/16 00:37:29;;;;;;;26.10;21.10;;;;;;;9.93;77.54;101291.13;5026571;28;20843;-75
2020/12/16 00:39:54;;;;;;;27.03;21.40;;;;;;;9.73;78.34;101295.03;5038946;28;20529;-75
2020/12/16 00:42:19;;;;;;;32.30;23.40;;;;;;;10.18;77.35;101283.78;5039129;28;20202;-78
2020/12/16 00:44:45;;;;;;;29.57;22.90;;;;;;;10.17;76.52;101287.25;5038886;28;20178;-75
2020/12/16 00:47:10;;;;;;;30.03;22.30;;;;;;;10.18;76.93;101288.13;5038372;28;20182;-76
2020/12/16 00:49:35;;;;;;;29.50;21.87;;;;;;;10.22;77.16;101284.75;5038291;28;20269;-70
2020/12/16 00:52:01;;;;;;;32.07;22.63;;;;;;;9.99;77.94;101289.50;5039141;28;20193;-75
2020/12/16 00:54:26;;;;;;;33.90;23.73;;;;;;;10.23;76.92;101286.50;5035430;28;20233;-73
2020/12/16 00:56:51;;;;;;;30.33;23.37;;;;;;;10.15;77.10;101295.88;5028722;28;20166;-77
2020/12/16 00:59:17;;;;;;;30.37;23.70;;;;;;;10.04;77.56;101296.53;5027463;28;20229;-77
2020/12/16 01:01:42;;;;;;;31.60;24.00;;;;;;;9.91;78.07;101299.75;5030130;28;20210;-77
2020/12/16 01:04:07;;;;;;;31.53;23.30;;;;;;;9.86;78.00;101293.53;5039347;28;20225;-76
2020/12/16 01:06:33;;;;;;;31.10;23.47;;;;;;;9.98;77.94;101295.53;5040271;28;20252;-75
2020/12/16 01:08:58;;;;;;;34.07;24.10;;;;;;;10.15;77.64;101290.66;5039667;28;20182;-74
2020/12/16 01:11:23;;;;;;;31.13;22.80;;;;;;;10.25;77.12;101288.28;5039822;28;20197;-71
2020/12/16 01:13:49;;;;;;;32.43;23.67;;;;;;;10.00;77.18;101297.34;5039662;28;20213;-73
2020/12/16 01:16:14;;;;;;;30.00;23.13;;;;;;;10.24;76.32;101298.66;5039420;28;20201;-73
2020/12/16 01:18:39;;;;;;;35.30;24.43;;;;;;;10.28;76.06;101303.09;5039633;28;20571;-74
2020/12/16 01:21:05;;;;;;;33.07;24.10;;;;;;;10.14;76.24;101301.94;5039994;28;20181;-73
2020/12/16 01:23:30;;;;;;;27.80;21.40;;;;;;;10.20;76.43;101302.06;5039416;28;20202;-74
2020/12/16 01:25:55;;;;;;;33.20;23.50;;;;;;;10.08;76.50;101306.19;5039333;28;20197;-74
2020/12/16 01:28:23;;;;;;;32.43;23.97;;;;;;;10.28;75.83;101311.81;5039768;28;20433;-74
2020/12/16 01:30:49;;;;;;;29.73;21.87;;;;;;;10.17;76.39;101310.69;5039318;28;20563;-77
2020/12/16 01:33:14;;;;;;;30.47;22.50;;;;;;;10.23;75.95;101315.16;5039430;28;20419;-73
2020/12/16 01:35:39;;;;;;;26.77;20.80;;;;;;;10.13;75.70;101315.81;5039725;28;20174;-73
2020/12/16 01:38:05;;;;;;;29.83;20.10;;;;;;;10.17;75.33;101322.84;5039231;28;20206;-72
2020/12/16 01:40:30;;;;;;;28.50;19.73;;;;;;;10.11;74.85;101315.78;5039057;28;20194;-74
2020/12/16 01:42:56;;;;;;;26.80;19.60;;;;;;;10.29;74.70;101315.28;5039909;28;20190;-75
2020/12/16 01:45:22;;;;;;;27.17;21.00;;;;;;;10.22;75.35;101313.41;5039151;28;20206;-74
2020/12/16 01:47:49;;;;;;;23.90;17.17;;;;;;;10.10;74.73;101317.50;5039246;28;20436;-72
2020/12/16 01:50:15;;;;;;;24.90;19.30;;;;;;;10.35;73.81;101325.88;5039390;28;20459;-74
2020/12/16 01:52:40;;;;;;;24.83;18.80;;;;;;;10.13;74.25;101328.84;5039098;28;20413;-74
2020/12/16 01:55:08;;;;;;;25.77;18.47;;;;;;;10.42;73.62;101332.94;5038907;28;20194;-76
2020/12/16 01:57:39;;;;;;;28.30;19.57;;;;;;;10.47;73.53;101329.56;5039289;28;20163;-74
2020/12/16 02:00:09;;;;;;;25.63;19.20;;;;;;;10.27;74.04;101324.81;5038875;28;20463;-75
2020/12/16 02:02:38;;;;;;;26.97;18.40;;;;;;;10.37;73.49;101321.56;5038796;28;20481;-76
2020/12/16 02:05:05;;;;;;;25.30;18.27;;;;;;;10.56;72.84;101319.31;5038853;28;20396;-75
2020/12/16 02:07:31;;;;;;;24.40;18.30;;;;;;;10.22;73.75;101327.31;5038726;28;20424;-76
2020/12/16 02:09:56;;;;;;;25.30;18.60;;;;;;;10.25;74.39;101335.16;5038958;28;20462;-74
2020/12/16 02:12:28;;;;;;;27.50;19.03;;;;;;;10.16;74.45;101323.69;5038313;28;20445;-71
2020/12/16 02:14:53;;;;;;;26.80;18.70;;;;;;;10.25;73.75;101323.88;5038482;28;20209;-72
2020/12/16 02:17:18;;;;;;;27.20;19.77;;;;;;;10.06;74.48;101328.69;5039122;28;20459;-73
2020/12/16 02:19:48;;;;;;;27.50;19.90;;;;;;;10.24;73.93;101325.63;5038663;28;20410;-72
2020/12/16 02:22:14;;;;;;;26.67;20.00;;;;;;;10.45;73.58;101332.13;5037760;28;20262;-72
2020/12/16 02:24:59;;;;;;;25.90;18.87;;;;;;;10.29;74.34;101342.19;5038536;28;20461;-72
2020/12/16 02:27:25;;;;;;;24.70;18.40;;;;;;;10.20;74.67;101341.13;5038451;28;20189;-72
2020/12/16 02:29:50;;;;;;;28.30;20.30;;;;;;;10.13;74.75;101349.69;5038619;28;20428;-71
2020/12/16 02:32:17;;;;;;;30.60;22.20;;;;;;;10.13;74.70;101345.34;5038344;28;20198;-72
2020/12/16 02:34:42;;;;;;;27.20;20.90;;;;;;;10.49;73.87;101343.50;5038356;28;20220;-71
2020/12/16 02:37:07;;;;;;;29.17;21.87;;;;;;;10.61;73.34;101348.97;5037895;28;20441;-72
2020/12/16 02:39:33;;;;;;;25.43;20.80;;;;;;;10.34;74.11;101354.47;5038094;28;20175;-71
2020/12/16 02:42:00;;;;;;;29.90;21.50;;;;;;;10.21;74.77;101363.75;5038165;28;20174;-73
2020/12/16 02:44:25;;;;;;;27.70;21.77;;;;;;;10.28;74.80;101366.53;5038745;28;20269;-72
2020/12/16 02:46:51;;;;;;;30.57;22.77;;;;;;;10.30;74.71;101358.75;5038172;28;20506;-71
2020/12/16 02:49:16;;;;;;;27.97;21.23;;;;;;;10.31;74.68;101365.72;5038016;28;20607;-72
2020/12/16 02:51:41;;;;;;;33.53;22.97;;;;;;;10.20;74.84;101368.09;5038304;28;20193;-72
2020/12/16 02:54:07;;;;;;;29.70;21.30;;;;;;;10.34;75.14;101375.34;5037925;28;20170;-72
2020/12/16 02:56:32;;;;;;;29.60;21.67;;;;;;;10.14;75.68;101369.69;5037916;28;20265;-71
2020/12/16 02:58:57;;;;;;;29.10;21.60;;;;;;;10.18;75.40;101367.16;5038028;28;20205;-72
2020/12/16 03:01:22;;;;;;;28.23;22.30;;;;;;;10.28;74.95;101374.34;5035995;28;20186;-71
2020/12/16 03:03:48;;;;;;;26.07;19.43;;;;;;;10.38;75.07;101375.44;5037586;28;20202;-72
2020/12/16 03:06:14;;;;;;;29.20;20.97;;;;;;;10.48;74.38;101375.63;5037890;28;20177;-72
2020/12/16 03:08:40;;;;;;;33.00;21.30;;;;;;;10.22;75.30;101382.03;5037609;28;20267;-71
2020/12/16 03:11:05;;;;;;;27.70;19.50;;;;;;;10.27;75.19;101376.94;5037812;28;20425;-72
2020/12/16 03:13:30;;;;;;;30.97;21.87;;;;;;;10.20;75.23;101385.44;5037950;28;20170;-73
2020/12/16 03:15:56;;;;;;;29.00;21.03;;;;;;;10.37;74.76;101396.28;5037490;28;20182;-71
2020/12/16 03:18:21;;;;;;;30.97;22.63;;;;;;;10.58;73.03;101396.72;5037598;28;20166;-72
2020/12/16 03:20:46;;;;;;;30.97;21.93;;;;;;;10.70;73.21;101385.66;5037766;28;20181;-72
2020/12/16 03:23:12;;;;;;;31.20;22.90;;;;;;;10.59;73.64;101385.44;5037250;28;20213;-72
2020/12/16 03:25:37;;;;;;;35.03;23.40;;;;;;;10.37;74.70;101396.28;5037154;28;20654;-72
2020/12/16 03:28:02;;;;;;;30.40;23.67;;;;;;;10.23;75.32;101399.44;5037716;28;20212;-72
2020/12/16 03:30:27;;;;;;;36.57;24.13;;;;;;;10.32;74.88;101397.84;5037117;28;20188;-73
2020/12/16 03:32:53;;;;;;;35.00;24.80;;;;;;;10.45;74.59;101392.97;5037173;28;20178;-72
2020/12/16 03:35:18;;;;;;;33.30;23.53;;;;;;;10.52;74.71;101391.34;5037560;28;20552;-73
2020/12/16 03:37:43;;;;;;;31.60;23.37;;;;;;;10.43;74.62;101384.25;5037136;28;20253;-72
2020/12/16 03:40:09;;;;;;;32.63;23.03;;;;;;;10.41;73.79;101388.53;5036986;28;20178;-72
2020/12/16 03:42:35;;;;;;;31.97;23.60;;;;;;;10.37;74.79;101389.31;5037500;28;20190;-72
2020/12/16 03:45:01;;;;;;;30.67;23.30;;;;;;;10.16;75.05;101386.22;5037121;28;20181;-73
2020/12/16 03:47:26;;;;;;;31.87;22.50;;;;;;;10.24;74.48;101382.03;5037067;28;20387;-73
2020/12/16 03:49:51;;;;;;;30.53;22.07;;;;;;;10.21;74.34;101385.47;5037312;28;20183;-72
2020/12/16 03:52:16;;;;;;;32.40;22.20;;;;;;;10.38;73.64;101388.47;5036797;28;20594;-73
2020/12/16 03:54:42;;;;;;;27.70;20.87;;;;;;;10.39;73.60;101399.78;5036980;28;20170;-73
2020/12/16 03:57:07;;;;;;;32.37;23.40;;;;;;;10.47;72.86;101392.13;5037297;28;20542;-72
2020/12/16 03:59:33;;;;;;;27.80;21.00;;;;;;;10.47;72.64;101397.34;5034220;28;20166;-73
2020/12/16 04:01:58;;;;;;;32.07;22.03;;;;;;;10.53;72.25;101407.91;5036534;28;20189;-72
2020/12/16 04:04:23;;;;;;;29.17;20.70;;;;;;;10.55;72.95;101403.59;5036803;28;20202;-73
2020/12/16 04:06:48;;;;;;;32.13;21.43;;;;;;;10.60;72.05;101405.44;5036595;28;20278;-73
2020/12/16 04:09:14;;;;;;;29.77;20.43;;;;;;;10.59;72.66;101413.22;5036719;28;20531;-73
2020/12/16 04:11:39;;;;;;;27.70;20.37;;;;;;;10.64;72.29;101415.94;5037168;28;20162;-73
2020/12/16 04:14:05;;;;;;;29.90;21.20;;;;;;;10.47;72.54;101413.84;5036760;28;20193;-73
2020/12/16 04:16:30;;;;;;;30.93;22.00;;;;;;;10.38;73.16;101416.28;5036776;28;20174;-73
2020/12/16 04:18:55;;;;;;;28.70;21.33;;;;;;;10.46;72.72;101422.53;5037387;28;20177;-73
2020/12/16 04:21:21;;;;;;;25.70;18.10;;;;;;;10.66;69.20;101420.31;5036546;28;20543;-72
2020/12/16 04:23:47;;;;;;;22.83;17.23;;;;;;;10.56;69.73;101421.00;5036422;28;20564;-72
2020/12/16 04:26:12;;;;;;;22.10;17.53;;;;;;;10.55;70.77;101425.34;5037075;28;20536;-73
2020/12/16 04:28:37;;;;;;;27.97;19.50;;;;;;;10.60;70.52;101421.06;5036533;28;20427;-74
2020/12/16 04:31:04;;;;;;;23.10;18.13;;;;;;;10.72;70.23;101417.84;5036656;28;20179;-73
2020/12/16 04:33:29;;;;;;;25.50;18.93;;;;;;;10.82;70.70;101407.59;5037024;28;20181;-74
2020/12/16 04:35:54;;;;;;;25.80;19.93;;;;;;;10.69;71.48;101399.53;5036519;28;20428;-72
2020/12/16 04:38:20;;;;;;;27.00;20.10;;;;;;;10.69;71.87;101416.88;5036548;28;20178;-73
2020/12/16 04:40:46;;;;;;;26.83;21.30;;;;;;;10.66;72.22;101416.84;5036863;28;20174;-73
2020/12/16 04:43:16;;;;;;;26.40;19.80;;;;;;;10.72;71.78;101423.06;5036376;28;20471;-73
2020/12/16 04:45:42;;;;;;;29.13;20.70;;;;;;;10.50;72.46;101426.06;5036537;28;20166;-74
2020/12/16 04:48:11;;;;;;;28.47;20.47;;;;;;;10.52;72.92;101427.84;5036938;28;20409;-73
2020/12/16 04:50:37;;;;;;;27.77;20.90;;;;;;;10.24;74.64;101434.16;5035599;28;20197;-74
2020/12/16 04:53:06;;;;;;;26.43;20.63;;;;;;;10.62;72.51;101428.91;5036481;28;20396;-73
2020/12/16 04:55:31;;;;;;;27.63;20.60;;;;;;;10.65;72.10;101444.66;5036773;28;20406;-73
2020/12/16 04:58:00;;;;;;;31.10;20.47;;;;;;;10.54;72.74;101446.13;5036472;28;20417;-73
2020/12/16 05:00:26;;;;;;;28.47;20.90;;;;;;;10.65;72.08;101441.13;5038368;28;20462;-72
2020/12/16 05:02:55;;;;;;;29.10;20.10;;;;;;;10.73;72.02;101447.38;5040425;28;20419;-72
2020/12/16 05:05:21;;;;;;;30.60;21.20;;;;;;;10.66;72.44;101445.53;5039890;28;20577;-73
2020/12/16 05:07:48;;;;;;;29.30;21.33;;;;;;;10.55;72.89;101453.13;5039951;28;20508;-73
2020/12/16 05:10:29;;;;;;;28.10;21.07;;;;;;;10.55;73.10;101451.41;5039515;28;20444;-72
2020/12/16 05:13:05;;;;;;;32.50;21.10;;;;;;;10.60;72.62;101456.72;5040038;28;20465;-74
2020/12/16 05:15:31;;;;;;;32.40;22.10;;;;;;;10.53;72.96;101460.91;5039755;28;20713;-74
2020/12/16 05:18:06;;;;;;;32.20;21.60;;;;;;;10.30;74.69;101457.78;5039760;28;20425;-73
2020/12/16 05:20:32;;;;;;;33.87;22.90;;;;;;;10.54;73.32;101453.94;5039647;28;20299;-73
2020/12/16 05:23:01;;;;;;;31.93;22.90;;;;;;;10.88;72.00;101452.94;5039624;28;20563;-73
2020/12/16 05:25:27;;;;;;;30.70;22.97;;;;;;;10.64;72.90;101449.84;5039649;28;20213;-74
2020/12/16 05:27:52;;;;;;;33.90;23.40;;;;;;;10.72;72.62;101459.56;5040015;28;20443;-73
2020/12/16 05:30:18;;;;;;;33.40;22.57;;;;;;;10.59;73.18;101458.44;5039388;28;20503;-73
2020/12/16 05:32:43;;;;;;;36.00;24.70;;;;;;;9.78;76.42;101467.84;5039541;28;20166;-73
2020/12/16 05:35:29;;;;;;;32.80;22.30;;;;;;;10.20;75.35;101463.59;5039880;28;20170;-72
2020/12/16 05:38:02;;;;;;;36.43;24.80;;;;;;;10.57;73.86;101459.25;5038726;28;20208;-72
2020/12/16 05:40:29;;;;;;;35.97;23.80;;;;;;;10.26;75.11;101471.59;5039360;28;20387;-72
2020/12/16 05:42:54;;;;;;;34.87;22.23;;;;;;;10.26;74.43;101469.84;5038485;28;20439;-72
2020/12/16 05:45:25;;;;;;;31.97;22.60;;;;;;;10.36;74.76;101468.34;5039280;28;20623;-72
2020/12/16 05:48:00;;;;;;;30.30;21.90;;;;;;;10.70;73.41;101461.28;5039667;28;20568;-72
2020/12/16 05:50:30;;;;;;;33.27;21.90;;;;;;;10.29;73.76;101464.69;5039012;28;20832;-72
2020/12/16 05:53:08;;;;;;;34.70;24.07;;;;;;;10.54;73.34;101462.69;5039130;28;20417;-73
2020/12/16 05:55:33;;;;;;;37.23;21.80;;;;;;;10.50;73.64;101463.47;5039181;28;20470;-74
2020/12/16 05:58:06;;;;;;;32.07;23.27;;;;;;;10.56;72.97;101468.78;5039036;28;20441;-73
2020/12/16 06:00:41;;;;;;;33.00;23.17;;;;;;;10.56;73.24;101470.53;5038790;28;20224;-71
2020/12/16 06:03:10;;;;;;;33.80;23.20;;;;;;;10.43;73.62;101475.47;5038792;28;21279;-71
2020/12/16 06:05:36;;;;;;;29.70;20.50;;;;;;;10.31;73.03;101467.34;5038055;28;20455;-72
2020/12/16 06:08:03;;;;;;;29.03;22.17;;;;;;;10.50;72.90;101473.88;5038770;28;20391;-74
2020/12/16 06:10:33;;;;;;;34.80;22.83;;;;;;;10.67;71.79;101474.22;5038792;28;20412;-72
2020/12/16 06:13:03;;;;;;;35.37;23.27;;;;;;;10.78;71.62;101472.75;5038236;28;20425;-72
2020/12/16 06:15:44;;;;;;;29.00;22.53;;;;;;;10.76;70.75;101482.25;5038835;28;20417;-73
2020/12/16 06:18:13;;;;;;;31.40;22.63;;;;;;;10.64;71.25;101491.56;5037975;28;20421;-72
2020/12/16 06:20:39;;;;;;;30.10;23.00;;;;;;;10.69;70.23;101489.91;5038591;28;20424;-72
2020/12/16 06:23:08;;;;;;;33.27;22.10;;;;;;;10.29;72.74;101493.34;5037759;28;20473;-72
2020/12/16 06:25:36;;;;;;;30.67;22.33;;;;;;;10.60;71.32;101490.59;5037691;28;20230;-73
2020/12/16 06:28:02;;;;;;;34.00;23.17;;;;;;;10.41;72.55;101499.75;5038150;28;20409;-72
2020/12/16 06:30:29;;;;;;;38.07;24.07;;;;;;;10.31;73.07;101497.72;5038371;28;20420;-72
2020/12/16 06:33:13;;;;;;;32.40;24.93;;;;;;;10.58;72.79;101497.50;5037677;28;20217;-73
2020/12/16 06:35:40;;;;;;;35.03;24.70;;;;;;;10.47;72.83;101499.88;5037532;28;20413;-72
2020/12/16 06:38:15;;;;;;;31.40;23.27;;;;;;;10.21;74.41;101494.03;5038341;28;20800;-72
2020/12/16 06:40:45;;;;;;;38.93;25.70;;;;;;;10.25;74.28;101501.09;5038115;28;20532;-73
2020/12/16 06:43:35;;;;;;;32.00;24.83;;;;;;;9.83;75.88;101507.91;5038092;28;20464;-72
2020/12/16 06:46:05;;;;;;;32.90;24.13;;;;;;;10.02;75.80;101503.16;5038310;28;20509;-72
2020/12/16 06:48:35;;;;;;;38.67;24.40;;;;;;;10.08;75.31;101498.97;5038042;28;20403;-72
2020/12/16 06:51:20;;;;;;;33.67;24.10;;;;;;;10.26;74.77;101500.25;5038103;28;20829;-72
2020/12/16 06:53:47;;;;;;;33.17;24.53;;;;;;;10.22;75.16;101506.22;5037960;28;20451;-72
2020/12/16 06:56:18;;;;;;;37.30;24.20;;;;;;;10.20;74.89;101507.91;5037283;28;20413;-72
2020/12/16 06:58:43;;;;;;;32.63;23.80;;;;;;;10.25;74.58;101501.09;5037975;28;20789;-73
2020/12/16 07:01:16;;;;;;;38.30;25.50;;;;;;;10.26;74.70;101502.84;5038143;28;20411;-72
2020/12/16 07:03:42;;;;;;;32.23;20.53;;;;;;;10.13;74.69;101512.09;5037702;28;20296;-73
2020/12/16 07:06:12;;;;;;;33.60;23.70;;;;;;;10.17;74.13;101513.06;5037723;28;20417;-72
2020/12/16 07:08:38;;;;;;;31.53;23.10;;;;;;;10.11;74.84;101516.41;5036805;28;20402;-73
2020/12/16 07:11:04;;;;;;;32.83;22.77;;;;;;;10.24;74.37;101514.94;5037718;28;20431;-71
2020/12/16 07:13:34;;;;;;;29.57;22.90;;;;;;;10.40;74.06;101519.69;5037985;28;20570;-72
2020/12/16 07:16:09;;;;;;;34.70;23.70;;;;;;;10.38;73.90;101526.63;5037632;28;20492;-72
2020/12/16 07:18:42;;;;;;;31.10;21.90;;;;;;;10.41;73.33;101523.22;5037420;28;20409;-73
2020/12/16 07:21:07;;;;;;;34.13;23.67;;;;;;;10.35;73.44;101521.34;5037592;28;20502;-73
2020/12/16 07:23:43;;;;;;;30.23;22.07;;;;;;;10.52;72.60;101526.94;5037081;28;20496;-72
2020/12/16 07:26:09;;;;;;;26.90;20.77;;;;;;;10.42;73.34;101525.84;5037454;28;20170;-72
2020/12/16 07:28:38;;;;;;;31.60;23.20;;;;;;;10.39;72.52;101530.09;5037288;28;20384;-73
2020/12/16 07:31:05;;;;;;;31.60;24.07;;;;;;;9.92;73.49;101538.50;5037385;28;20804;-73
2020/12/16 07:33:30;;;;;;;30.03;22.90;;;;;;;10.22;74.36;101527.09;5037561;28;20387;-74
2020/12/16 07:35:58;;;;;;;32.07;23.87;;;;;;;10.25;73.57;101533.22;5037552;28;20387;-74
2020/12/16 07:38:23;;;;;;;31.40;22.77;;;;;;;9.92;74.48;101536.78;5037247;28;20185;-72
2020/12/16 07:40:53;;;;;;;29.90;22.40;;;;;;;10.29;72.97;101532.44;5037042;28;20388;-74
2020/12/16 07:43:19;;;;;;;30.60;22.23;;;;;;;10.16;73.53;101534.75;5037344;28;20194;-73
2020/12/16 07:45:46;;;;;;;28.40;21.40;;;;;;;10.52;71.69;101532.13;5037150;28;20696;-72
2020/12/16 07:48:15;;;;;;;25.87;20.20;;;;;;;10.48;71.64;101532.06;5037220;28;20698;-73
2020/12/16 07:50:41;;;;;;;32.67;22.30;;;;;;;10.53;71.54;101533.91;5037367;28;20409;-73
2020/12/16 07:53:06;;;;;;;28.80;20.97;;;;;;;10.25;71.05;101541.03;5036767;28;20437;-75
2020/12/16 07:55:37;;;;;;;37.93;20.90;;;;;;;10.45;69.75;101541.53;5036896;28;20196;-73
2020/12/16 07:58:08;;;;;;;27.57;20.20;;;;;;;10.66;69.79;101534.19;5037353;28;20481;-73
2020/12/16 08:00:34;;;;;;;23.40;18.03;;;;;;;10.40;69.64;101537.06;5035696;28;20586;-74
2020/12/16 08:03:00;;;;;;;26.57;19.70;;;;;;;10.06;71.67;101541.44;5036087;28;20476;-73
2020/12/16 08:05:26;;;;;;;26.27;20.27;;;;;;;10.02;72.91;101550.91;5037064;28;20211;-72
2020/12/16 08:07:53;;;;;;;32.20;20.40;;;;;;;9.90;73.88;101541.09;5036409;28;20217;-73
2020/12/16 08:10:22;;;;;;;27.97;19.63;;;;;;;9.84;73.82;101548.72;5036128;28;20174;-73
2020/12/16 08:12:50;;;;;;;31.30;20.70;;;;;;;9.62;74.91;101547.31;5036927;28;20836;-73
2020/12/16 08:15:17;;;;;;;29.70;20.80;;;;;;;9.64;74.86;101558.63;5036373;28;20407;-74
2020/12/16 08:17:43;;;;;;;31.40;21.47;;;;;;;9.20;77.33;101561.78;5025763;28;20733;-73
2020/12/16 08:20:19;;;;;;;31.03;21.33;;;;;;;9.14;77.40;101555.50;5027830;28;20400;-72
2020/12/16 08:22:46;;;;;;;31.93;22.03;;;;;;;9.49;76.29;101558.22;5034281;28;20776;-72
2020/12/16 08:25:12;;;;;;;33.53;22.70;;;;;;;9.14;77.14;101569.38;5036665;28;20460;-73
2020/12/16 08:27:46;;;;;;;34.43;22.00;;;;;;;9.26;77.29;101572.34;5036784;28;20431;-73
2020/12/16 08:30:14;;;;;;;34.47;23.30;;;;;;;9.02;78.57;101579.44;5036034;28;20713;-73
2020/12/16 08:32:49;;;;;;;37.23;22.53;;;;;;;8.68;79.00;101581.91;5036935;28;20636;-72
2020/12/16 08:35:19;;;;;;;37.17;24.57;;;;;;;8.53;79.83;101576.22;5038150;28;20839;-75
2020/12/16 08:37:50;;;;;;;40.70;23.87;;;;;;;8.45;80.17;101588.06;5039316;28;21329;-78
2020/12/16 08:40:16;;;;;;;53.33;24.50;;;;;;;8.16;81.65;101588.88;5040478;28;20424;-76
2020/12/16 08:42:42;;;;;;;49.53;26.73;;;;;;;8.45;81.25;101585.47;5040420;28;20844;-77
2020/12/16 08:45:09;;;;;;;52.93;24.07;;;;;;;8.07;81.56;101591.16;5023782;28;20519;-77
2020/12/16 08:47:36;;;;;;;90.77;27.73;;;;;;;8.22;81.70;101590.78;5030023;28;20202;-74
2020/12/16 08:50:01;;;;;;;73.20;25.97;;;;;;;8.34;81.45;101587.72;5026812;28;20694;-76
2020/12/16 08:52:26;;;;;;;69.27;25.30;;;;;;;8.01;81.37;101586.66;5029208;28;20400;-77
2020/12/16 08:54:52;;;;;;;72.23;26.80;;;;;;;8.32;80.87;101587.69;5033286;28;20181;-76
2020/12/16 08:57:20;;;;;;;46.90;26.20;;;;;;;8.48;80.49;101595.97;5030218;28;20170;-76
2020/12/16 08:59:45;;;;;;;41.43;24.17;;;;;;;8.40;80.86;101599.19;5029245;28;20225;-75
2020/12/16 09:02:11;;;;;;;220.00;31.10;;;;;;;8.33;80.80;101602.41;5034068;28;20475;-75
2020/12/16 09:04:38;;;;;;;256.27;31.43;;;;;;;7.72;82.97;101604.69;5040291;28;20174;-75
2020/12/16 09:07:07;;;;;;;110.97;26.53;;;;;;;7.78;82.72;101609.22;5023121;28;20333;-72
2020/12/16 09:09:34;;;;;;;322.93;31.87;;;;;;;7.86;81.96;101620.75;5029517;28;20414;-72
2020/12/16 09:12:01;;;;;;;104.30;26.97;;;;;;;8.09;81.72;101613.75;5024550;28;20448;-71
2020/12/16 09:14:26;;;;;;;157.60;27.63;;;;;;;7.80;82.32;101622.25;5036954;28;20574;-71
2020/12/16 09:16:52;;;;;;;91.73;27.63;;;;;;;7.79;83.01;101628.28;5030538;28;20783;-72
2020/12/16 09:19:19;;;;;;;53.10;24.77;;;;;;;8.09;81.37;101618.97;5027710;28;20170;-72
2020/12/16 09:21:45;;;;;;;43.60;24.53;;;;;;;8.36;80.95;101617.22;5017707;28;20424;-70
2020/12/16 09:24:11;;;;;;;39.90;23.87;;;;;;;8.36;81.54;101619.81;5037627;28;20480;-72
2020/12/16 09:26:44;;;;;;;42.80;25.37;;;;;;;8.45;80.07;101619.25;5038849;28;20395;-74
2020/12/16 09:29:23;;;;;;;39.33;24.50;;;;;;;8.06;80.70;101629.25;5035914;28;20175;-72
2020/12/16 09:31:51;;;;;;;42.60;22.93;;;;;;;7.64;81.83;101634.69;5035322;28;20686;-74
2020/12/16 09:34:17;;;;;;;54.27;24.50;;;;;;;8.20;80.23;101632.31;5038047;28;20440;-73
2020/12/16 09:36:43;;;;;;;39.40;23.63;;;;;;;7.83;80.95;101638.81;5039273;28;20778;-74
2020/12/16 09:39:08;;;;;;;45.53;22.53;;;;;;;8.47;79.48;101634.09;5038767;28;20425;-74
2020/12/16 09:41:47;;;;;;;62.13;23.37;;;;;;;8.32;79.03;101628.34;5029341;28;20719;-74
2020/12/16 09:44:30;;;;;;;43.20;22.73;;;;;;;8.68;77.99;101633.00;5037359;28;20213;-73
2020/12/16 09:47:17;;;;;;;105.27;27.40;;;;;;;8.05;81.10;101637.88;5028543;28;20425;-72
2020/12/16 09:49:44;;;;;;;39.40;23.90;;;;;;;8.53;79.38;101636.88;5037735;28;20421;-73
2020/12/16 09:52:25;;;;;;;40.60;24.97;;;;;;;9.00;77.62;101626.22;5038110;28;20428;-75
2020/12/16 09:54:50;;;;;;;34.90;21.93;;;;;;;8.38;78.52;101629.44;5027961;28;20479;-75
2020/12/16 09:57:19;;;;;;;38.93;23.80;;;;;;;8.43;78.36;101629.59;5029481;28;20451;-75
2020/12/16 09:59:44;;;;;;;40.57;23.63;;;;;;;8.61;78.56;101624.13;5030313;28;20182;-74
2020/12/16 10:02:10;;;;;;;36.17;23.77;;;;;;;8.69;77.81;101624.38;5028081;28;20475;-73
2020/12/16 10:04:35;;;;;;;46.67;26.73;;;;;;;8.70;77.76;101618.31;5033221;28;20178;-75
2020/12/16 10:07:00;;;;;;;107.40;25.67;;;;;;;8.46;78.59;101621.03;5018579;28;20171;-74
2020/12/16 10:09:26;;;;;;;112.50;24.90;;;;;;;8.26;79.48;101618.63;5029913;28;20178;-74
2020/12/16 10:11:51;;;;;;;66.97;23.10;;;;;;;8.18;79.22;101617.50;5038732;28;20174;-78
2020/12/16 10:14:17;;;;;;;86.77;22.77;;;;;;;8.34;78.47;101616.31;5038921;28;20220;-75
2020/12/16 10:16:47;;;;;;;65.67;22.77;;;;;;;7.53;80.74;101618.72;5038147;28;20178;-76
2020/12/16 10:19:16;;;;;;;101.37;22.53;;;;;;;8.04;79.51;101612.72;5037674;28;20819;-77
2020/12/16 10:21:48;;;;;;;105.37;22.20;;;;;;;8.18;78.87;101618.38;5038209;28;20406;-74
2020/12/16 10:24:14;;;;;;;99.90;23.10;;;;;;;7.87;80.26;101632.91;5038144;28;20870;-76
2020/12/16 10:26:40;;;;;;;86.27;20.93;;;;;;;8.01;79.62;101620.41;5038444;28;20807;-73
2020/12/16 10:29:05;;;;;;;72.70;22.40;;;;;;;7.71;79.65;101620.22;5037111;28;20466;-71
2020/12/16 10:31:30;;;;;;;76.27;21.00;;;;;;;7.99;79.14;101619.47;5038034;28;20197;-73
2020/12/16 10:33:56;;;;;;;46.50;21.30;;;;;;;7.94;79.78;101631.41;5038452;28;20163;-71
2020/12/16 10:36:21;;;;;;;47.87;22.50;;;;;;;8.14;78.57;101618.22;5037856;28;20175;-72
2020/12/16 10:38:47;;;;;;;48.70;19.27;;;;;;;7.82;79.28;101620.59;5036634;28;20206;-74
2020/12/16 10:41:12;;;;;;;57.73;20.80;;;;;;;7.78;79.81;101621.31;5036230;28;20197;-73
2020/12/16 10:43:38;;;;;;;65.70;21.33;;;;;;;8.09;78.95;101616.34;5036504;28;20221;-73
2020/12/16 10:46:06;;;;;;;46.40;20.40;;;;;;;8.03;78.94;101623.94;5036923;28;20548;-75
2020/12/16 10:48:32;;;;;;;65.77;23.00;;;;;;;8.24;78.28;101623.78;5037296;28;20539;-75
2020/12/16 10:50:57;;;;;;;126.27;24.53;;;;;;;8.18;78.39;101623.56;5036924;28;20447;-74
2020/12/16 10:53:22;;;;;;;166.43;27.60;;;;;;;8.52;77.46;101631.63;5036191;28;20231;-76
2020/12/16 10:55:48;;;;;;;102.63;25.70;;;;;;;8.17;78.23;101629.63;5036929;28;20440;-76
2020/12/16 10:58:14;;;;;;;99.97;23.90;;;;;;;8.09;78.68;101634.53;5035122;28;20259;-73
2020/12/16 11:00:39;;;;;;;56.83;23.40;;;;;;;8.12;79.22;101623.38;5036965;28;20788;-77
2020/12/16 11:03:04;;;;;;;84.33;23.57;;;;;;;7.36;81.86;101631.09;5036101;28;20256;-74
2020/12/16 11:05:30;;;;;;;47.07;23.97;;;;;;;7.76;80.71;101621.25;5035962;28;20504;-72
2020/12/16 11:07:55;;;;;;;43.50;21.40;;;;;;;8.02;80.76;101609.16;5036174;28;20210;-71
2020/12/16 11:10:20;;;;;;;64.50;22.50;;;;;;;7.95;80.12;101611.53;5036652;28;20193;-70
2020/12/16 11:12:45;;;;;;;70.53;22.60;;;;;;;8.26;79.63;101618.63;5036568;28;20185;-70